createdAt,value
2017-08-10T00:00:15.610Z,1011.71
2017-08-10T00:01:25.575Z,1011.73
2017-08-10T00:02:35.858Z,1011.73
2017-08-10T00:03:45.759Z,1011.66
2017-08-10T00:04:55.728Z,1011.66
2017-08-10T00:06:05.990Z,1011.64
2017-08-10T00:07:16.283Z,1011.7
2017-08-10T00:08:26.570Z,1011.72
2017-08-10T00:09:36.789Z,1011.77
2017-08-10T00:10:47.068Z,1011.7
2017-08-10T00:11:57.365Z,1011.76
2017-08-10T00:13:07.336Z,1011.78
2017-08-10T00:14:17.606Z,1011.84
2017-08-10T00:15:27.831Z,1011.84
2017-08-10T00:16:38.088Z,1011.91
2017-08-10T00:17:48.371Z,1011.94
2017-08-10T00:18:58.351Z,1011.95
2017-08-10T00:20:08.639Z,1011.97
2017-08-10T00:21:18.877Z,1012.01
2017-08-10T00:22:28.836Z,1012.03
2017-08-10T00:23:39.123Z,1012.1
2017-08-10T00:24:49.092Z,1012.11
2017-08-10T00:25:58.756Z,1012.07
2017-08-10T00:27:09.300Z,1012.02
2017-08-10T00:28:19.602Z,1012.01
2017-08-10T00:29:29.262Z,1012.03
2017-08-10T00:30:39.551Z,1012.02
2017-08-10T00:31:49.824Z,1012.02
2017-08-10T00:33:00.372Z,1012.04
2017-08-10T00:34:10.648Z,1012
2017-08-10T00:35:20.609Z,1012.03
2017-08-10T00:36:30.895Z,1011.97
2017-08-10T00:37:40.874Z,1011.98
2017-08-10T00:38:51.388Z,1011.96
2017-08-10T00:40:01.672Z,1011.96
2017-08-10T00:41:11.646Z,1011.9
2017-08-10T00:42:21.936Z,1011.9
2017-08-10T00:43:32.233Z,1011.85
2017-08-10T00:44:42.771Z,1011.8
2017-08-10T00:45:52.751Z,1011.75
2017-08-10T00:47:02.412Z,1011.73
2017-08-10T00:48:12.689Z,1011.71
2017-08-10T00:49:22.662Z,1011.72
2017-08-10T00:50:33.195Z,1011.75
2017-08-10T00:51:43.464Z,1011.76
2017-08-10T00:52:53.440Z,1011.81
2017-08-10T00:54:03.725Z,1011.87
2017-08-10T00:55:13.676Z,1012
2017-08-10T00:56:23.903Z,1012.11
2017-08-10T00:57:34.194Z,1012.18
2017-08-10T00:58:44.473Z,1012.27
2017-08-10T00:59:54.760Z,1012.33
2017-08-10T01:01:04.721Z,1012.37
2017-08-10T01:02:15.253Z,1012.45
2017-08-10T01:03:25.220Z,1012.55
2017-08-10T01:04:35.496Z,1012.64
2017-08-10T01:05:45.478Z,1012.67
2017-08-10T01:06:55.748Z,1012.78
2017-08-10T01:08:06.284Z,1012.82
2017-08-10T01:09:16.569Z,1012.89
2017-08-10T01:10:26.552Z,1012.93
2017-08-10T01:11:36.517Z,1012.94
2017-08-10T01:12:46.504Z,1012.93
2017-08-10T01:13:57.048Z,1012.97
2017-08-10T01:15:07.326Z,1013.06
2017-08-10T01:16:17.609Z,1013.02
2017-08-10T01:17:27.566Z,1013.02
2017-08-10T01:18:37.858Z,1013.03
2017-08-10T01:19:48.094Z,1013.01
2017-08-10T01:20:58.353Z,1013.04
2017-08-10T01:22:08.328Z,1013.08
2017-08-10T01:23:18.608Z,1013.09
2017-08-10T01:24:28.574Z,1013.11
2017-08-10T01:25:38.791Z,1013.14
2017-08-10T01:26:49.067Z,1013.12
2017-08-10T01:27:59.362Z,1013.07
2017-08-10T01:29:09.329Z,1013.12
2017-08-10T01:30:19.603Z,1013.18
2017-08-10T01:31:29.881Z,1013.13
2017-08-10T01:32:40.160Z,1013.16
2017-08-10T01:33:50.120Z,1013.23
2017-08-10T01:35:00.404Z,1013.17
2017-08-10T01:36:10.673Z,1013.23
2017-08-10T01:37:21.207Z,1013.29
2017-08-10T01:38:30.878Z,1013.26
2017-08-10T01:39:40.857Z,1013.33
2017-08-10T01:40:51.138Z,1013.33
2017-08-10T01:42:01.406Z,1013.32
2017-08-10T01:43:11.944Z,1013.32
2017-08-10T01:44:21.915Z,1013.36
2017-08-10T01:45:32.200Z,1013.38
2017-08-10T01:46:42.494Z,1013.41
2017-08-10T01:47:52.780Z,1013.43
2017-08-10T01:49:03.316Z,1013.46
2017-08-10T01:50:13.599Z,1013.48
2017-08-10T01:51:23.867Z,1013.47
2017-08-10T01:52:33.834Z,1013.49
2017-08-10T01:53:43.813Z,1013.5
2017-08-10T01:54:54.034Z,1013.5
2017-08-10T01:56:04.316Z,1013.54
2017-08-10T01:57:14.297Z,1013.54
2017-08-10T01:58:24.580Z,1013.53
2017-08-10T01:59:34.871Z,1013.5
2017-08-10T02:00:45.412Z,1013.52
2017-08-10T02:01:55.681Z,1013.5
2017-08-10T02:03:05.651Z,1013.48
2017-08-10T02:04:15.942Z,1013.51
2017-08-10T02:05:26.212Z,1013.51
2017-08-10T02:06:36.126Z,1013.51
2017-08-10T02:07:46.424Z,1013.5
2017-08-10T02:08:56.388Z,1013.49
2017-08-10T02:10:06.677Z,1013.52
2017-08-10T02:11:16.628Z,1013.53
2017-08-10T02:12:26.850Z,1013.54
2017-08-10T02:13:37.131Z,1013.59
2017-08-10T02:14:47.403Z,1013.58
2017-08-10T02:15:57.691Z,1013.58
2017-08-10T02:17:07.954Z,1013.61
2017-08-10T02:18:18.550Z,1013.67
2017-08-10T02:19:28.530Z,1013.63
2017-08-10T02:20:38.485Z,1013.63
2017-08-10T02:21:48.764Z,1013.6
2017-08-10T02:22:58.719Z,1013.58
2017-08-10T02:24:09.313Z,1013.56
2017-08-10T02:25:19.284Z,1013.56
2017-08-10T02:26:29.258Z,1013.48
2017-08-10T02:27:39.541Z,1013.46
2017-08-10T02:28:49.829Z,1013.38
2017-08-10T02:30:00.372Z,1013.37
2017-08-10T02:31:10.668Z,1013.35
2017-08-10T02:32:20.940Z,1013.3
2017-08-10T02:33:31.232Z,1013.25
2017-08-10T02:34:41.511Z,1013.26
2017-08-10T02:35:51.777Z,1013.24
2017-08-10T02:37:01.752Z,1013.27
2017-08-10T02:38:12.036Z,1013.2
2017-08-10T02:39:22.020Z,1013.2
2017-08-10T02:40:32.305Z,1013.13
2017-08-10T02:41:42.510Z,1013.07
2017-08-10T02:42:52.480Z,1013.03
2017-08-10T02:44:02.445Z,1012.95
2017-08-10T02:45:12.742Z,1012.97
2017-08-10T02:46:22.704Z,1012.89
2017-08-10T02:47:32.629Z,1012.87
2017-08-10T02:48:42.898Z,1012.82
2017-08-10T02:49:53.190Z,1012.8
2017-08-10T02:51:03.162Z,1012.74
2017-08-10T02:52:13.445Z,1012.7
2017-08-10T02:53:24.028Z,1012.67
2017-08-10T02:54:34.298Z,1012.63
2017-08-10T02:55:44.561Z,1012.62
2017-08-10T02:56:54.838Z,1012.6
2017-08-10T02:58:05.115Z,1012.55
2017-08-10T02:59:15.647Z,1012.5
2017-08-10T03:00:25.951Z,1012.45
2017-08-10T03:01:35.925Z,1012.41
2017-08-10T03:02:46.199Z,1012.4
2017-08-10T03:03:56.478Z,1012.36
2017-08-10T03:05:07.038Z,1012.36
2017-08-10T03:06:16.988Z,1012.38
2017-08-10T03:07:27.267Z,1012.32
2017-08-10T03:08:37.527Z,1012.34
2017-08-10T03:09:47.184Z,1012.33
2017-08-10T03:10:57.714Z,1012.27
2017-08-10T03:12:07.993Z,1012.23
2017-08-10T03:13:17.971Z,1012.21
2017-08-10T03:14:28.258Z,1012.17
2017-08-10T03:15:38.535Z,1012.15
2017-08-10T03:16:49.049Z,1012.11
2017-08-10T03:17:59.342Z,1012.1
2017-08-10T03:19:09.618Z,1012.07
2017-08-10T03:20:19.899Z,1012.02
2017-08-10T03:21:30.194Z,1012
2017-08-10T03:22:40.704Z,1011.99
2017-08-10T03:23:50.997Z,1011.95
2017-08-10T03:25:01.284Z,1011.88
2017-08-10T03:26:11.565Z,1011.85
2017-08-10T03:27:21.846Z,1011.82
2017-08-10T03:28:32.386Z,1011.82
2017-08-10T03:29:42.670Z,1011.8
2017-08-10T03:30:52.962Z,1011.75
2017-08-10T03:32:03.252Z,1011.81
2017-08-10T03:33:13.210Z,1011.74
2017-08-10T03:34:23.745Z,1011.75
2017-08-10T03:35:33.712Z,1011.75
2017-08-10T03:36:43.989Z,1011.77
2017-08-10T03:37:53.966Z,1011.78
2017-08-10T03:39:04.239Z,1011.73
2017-08-10T03:40:14.768Z,1011.69
2017-08-10T03:41:25.051Z,1011.63
2017-08-10T03:42:35.034Z,1011.55
2017-08-10T03:43:45.311Z,1011.53
2017-08-10T03:44:55.571Z,1011.5
2017-08-10T03:46:06.106Z,1011.44
2017-08-10T03:47:16.074Z,1011.45
2017-08-10T03:48:25.739Z,1011.43
2017-08-10T03:49:35.379Z,1011.38
2017-08-10T03:50:45.668Z,1011.38
2017-08-10T03:51:56.197Z,1011.35
2017-08-10T03:53:06.170Z,1011.32
2017-08-10T03:54:16.157Z,1011.27
2017-08-10T03:55:25.819Z,1011.31
2017-08-10T03:56:36.093Z,1011.26
2017-08-10T03:57:45.993Z,1011.16
2017-08-10T03:58:56.262Z,1011.17
2017-08-10T04:00:06.536Z,1011.16
2017-08-10T04:01:16.511Z,1011.17
2017-08-10T04:02:26.489Z,1011.18
2017-08-10T04:03:37.022Z,1011.21
2017-08-10T04:04:47.314Z,1011.24
2017-08-10T04:05:57.592Z,1011.22
2017-08-10T04:07:07.886Z,1011.15
2017-08-10T04:08:18.189Z,1011.21
2017-08-10T04:09:28.392Z,1011.2
2017-08-10T04:10:38.663Z,1011.22
2017-08-10T04:11:47.998Z,1011.18
2017-08-10T04:12:58.269Z,1011.29
2017-08-10T04:14:08.542Z,1011.3
2017-08-10T04:15:19.060Z,1011.34
2017-08-10T04:16:29.025Z,1011.43
2017-08-10T04:17:38.985Z,1011.5
2017-08-10T04:18:49.265Z,1011.54
2017-08-10T04:19:59.551Z,1011.57
2017-08-10T04:21:09.480Z,1011.63
2017-08-10T04:22:19.447Z,1011.66
2017-08-10T04:23:29.725Z,1011.69
2017-08-10T04:24:39.987Z,1011.68
2017-08-10T04:25:50.281Z,1011.7
2017-08-10T04:27:00.806Z,1011.79
2017-08-10T04:28:11.095Z,1011.79
2017-08-10T04:29:21.052Z,1011.87
2017-08-10T04:30:31.022Z,1011.9
2017-08-10T04:31:40.997Z,1011.98
2017-08-10T04:32:51.513Z,1011.96
2017-08-10T04:34:01.527Z,1011.97
2017-08-10T04:35:11.803Z,1012.01
2017-08-10T04:36:22.099Z,1012
2017-08-10T04:37:32.379Z,1012
2017-08-10T04:38:42.900Z,1012.03
2017-08-10T04:39:52.881Z,1012.01
2017-08-10T04:41:02.853Z,1012
2017-08-10T04:42:13.148Z,1011.99
2017-08-10T04:43:23.115Z,1012.01
2017-08-10T04:44:33.659Z,1011.97
2017-08-10T04:45:43.620Z,1012.02
2017-08-10T04:46:53.916Z,1012.04
2017-08-10T04:48:03.883Z,1012.08
2017-08-10T04:49:13.863Z,1012.13
2017-08-10T04:50:24.091Z,1012.15
2017-08-10T04:51:34.364Z,1012.14
2017-08-10T04:52:44.328Z,1012.12
2017-08-10T04:53:54.596Z,1012.14
2017-08-10T04:55:04.870Z,1012.09
2017-08-10T04:56:15.171Z,1012.03
2017-08-10T04:57:25.140Z,1012.04
2017-08-10T04:58:35.426Z,1012.02
2017-08-10T04:59:45.385Z,1012.08
2017-08-10T05:00:55.363Z,1012.08
2017-08-10T05:02:05.590Z,1012.13
2017-08-10T05:03:15.552Z,1012.2
2017-08-10T05:04:25.530Z,1012.23
2017-08-10T05:05:35.483Z,1012.24
2017-08-10T05:06:45.771Z,1012.27
2017-08-10T05:07:55.999Z,1012.32
2017-08-10T05:09:06.280Z,1012.36
2017-08-10T05:10:16.579Z,1012.36
2017-08-10T05:11:26.588Z,1012.44
2017-08-10T05:12:36.853Z,1012.54
2017-08-10T05:13:47.080Z,1012.59
2017-08-10T05:14:57.063Z,1012.63
2017-08-10T05:16:07.357Z,1012.68
2017-08-10T05:17:17.648Z,1012.7
2017-08-10T05:18:27.944Z,1012.71
2017-08-10T05:19:38.470Z,1012.74
2017-08-10T05:20:48.448Z,1012.71
2017-08-10T05:21:58.758Z,1012.73
2017-08-10T05:23:09.041Z,1012.76
2017-08-10T05:24:19.319Z,1012.73
2017-08-10T05:25:29.843Z,1012.79
2017-08-10T05:26:39.521Z,1012.77
2017-08-10T05:27:49.483Z,1012.78
2017-08-10T05:28:59.465Z,1012.84
2017-08-10T05:30:09.740Z,1012.85
2017-08-10T05:31:20.317Z,1012.89
2017-08-10T05:32:29.987Z,1012.9
2017-08-10T05:33:40.270Z,1012.85
2017-08-10T05:34:50.249Z,1012.86
2017-08-10T05:36:00.221Z,1012.8
2017-08-10T05:37:10.434Z,1012.8
2017-08-10T05:38:20.709Z,1012.8
2017-08-10T05:39:30.669Z,1012.72
2017-08-10T05:40:40.633Z,1012.7
2017-08-10T05:41:50.604Z,1012.61
2017-08-10T05:43:00.823Z,1012.6
2017-08-10T05:44:10.789Z,1012.55
2017-08-10T05:45:21.070Z,1012.47
2017-08-10T05:46:31.371Z,1012.45
2017-08-10T05:47:41.657Z,1012.4
2017-08-10T05:48:51.855Z,1012.39
2017-08-10T05:50:02.134Z,1012.37
2017-08-10T05:51:12.109Z,1012.37
2017-08-10T05:52:22.071Z,1012.32
2017-08-10T05:53:32.349Z,1012.31
2017-08-10T05:54:42.601Z,1012.36
2017-08-10T05:55:52.893Z,1012.39
2017-08-10T05:57:03.189Z,1012.37
2017-08-10T05:58:13.163Z,1012.4
2017-08-10T05:59:23.751Z,1012.41
2017-08-10T06:00:34.284Z,1012.39
2017-08-10T06:01:44.557Z,1012.41
2017-08-10T06:02:54.830Z,1012.44
2017-08-10T06:04:04.797Z,1012.46
2017-08-10T06:05:15.351Z,1012.46
2017-08-10T06:06:25.884Z,1012.46
2017-08-10T06:07:35.866Z,1012.5
2017-08-10T06:08:45.525Z,1012.52
2017-08-10T06:09:55.805Z,1012.56
2017-08-10T06:11:05.806Z,1012.59
2017-08-10T06:12:16.341Z,1012.56
2017-08-10T06:13:26.325Z,1012.59
2017-08-10T06:14:36.602Z,1012.57
2017-08-10T06:15:46.908Z,1012.66
2017-08-10T06:16:57.179Z,1012.61
2017-08-10T06:18:07.708Z,1012.59
2017-08-10T06:19:17.995Z,1012.59
2017-08-10T06:20:28.271Z,1012.55
2017-08-10T06:21:38.564Z,1012.48
2017-08-10T06:22:48.540Z,1012.48
2017-08-10T06:23:59.063Z,1012.45
2017-08-10T06:25:09.345Z,1012.46
2017-08-10T06:26:19.303Z,1012.44
2017-08-10T06:27:29.580Z,1012.43
2017-08-10T06:28:39.561Z,1012.47
2017-08-10T06:29:50.075Z,1012.52
2017-08-10T06:31:00.056Z,1012.58
2017-08-10T06:32:10.324Z,1012.6
2017-08-10T06:33:20.601Z,1012.65
2017-08-10T06:34:30.906Z,1012.72
2017-08-10T06:35:41.444Z,1012.78
2017-08-10T06:36:51.742Z,1012.79
2017-08-10T06:38:02.023Z,1012.85
2017-08-10T06:39:12.307Z,1012.86
2017-08-10T06:40:22.613Z,1012.84
2017-08-10T06:41:33.158Z,1012.87
2017-08-10T06:42:43.434Z,1012.87
2017-08-10T06:43:53.731Z,1012.86
2017-08-10T06:45:04.020Z,1012.87
2017-08-10T06:46:14.291Z,1012.94
2017-08-10T06:47:24.202Z,1012.97
2017-08-10T06:48:33.866Z,1013.02
2017-08-10T06:49:44.140Z,1013.05
2017-08-10T06:50:54.296Z,1013.08
2017-08-10T06:52:04.565Z,1013.05
2017-08-10T06:53:15.111Z,1013.1
2017-08-10T06:54:24.774Z,1013.09
2017-08-10T06:55:35.063Z,1013.12
2017-08-10T06:56:45.339Z,1013.12
2017-08-10T06:57:55.300Z,1013.17
2017-08-10T06:59:05.840Z,1013.2
2017-08-10T07:00:15.812Z,1013.23
2017-08-10T07:01:26.077Z,1013.26
2017-08-10T07:02:36.054Z,1013.28
2017-08-10T07:03:46.331Z,1013.32
2017-08-10T07:04:56.871Z,1013.31
2017-08-10T07:06:07.156Z,1013.32
2017-08-10T07:07:17.435Z,1013.3
2017-08-10T07:08:27.435Z,1013.29
2017-08-10T07:09:37.415Z,1013.27
2017-08-10T07:10:47.948Z,1013.21
2017-08-10T07:11:58.249Z,1013.2
2017-08-10T07:13:08.227Z,1013.18
2017-08-10T07:14:18.192Z,1013.19
2017-08-10T07:15:27.860Z,1013.26
2017-08-10T07:16:38.395Z,1013.32
2017-08-10T07:17:48.416Z,1013.26
2017-08-10T07:18:58.670Z,1013.32
2017-08-10T07:20:08.949Z,1013.32
2017-08-10T07:21:19.237Z,1013.29
2017-08-10T07:22:29.482Z,1013.27
2017-08-10T07:23:39.456Z,1013.3
2017-08-10T07:24:49.133Z,1013.32
2017-08-10T07:25:58.781Z,1013.29
2017-08-10T07:27:08.443Z,1013.32
2017-08-10T07:28:18.671Z,1013.33
2017-08-10T07:29:28.639Z,1013.3
2017-08-10T07:30:38.925Z,1013.28
2017-08-10T07:31:49.196Z,1013.27
2017-08-10T07:32:59.473Z,1013.25
2017-08-10T07:34:10.016Z,1013.27
2017-08-10T07:35:20.301Z,1013.2
2017-08-10T07:36:30.604Z,1013.23
2017-08-10T07:37:40.874Z,1013.22
2017-08-10T07:38:51.155Z,1013.22
2017-08-10T07:40:01.695Z,1013.15
2017-08-10T07:41:11.982Z,1013.19
2017-08-10T07:42:21.634Z,1013.21
2017-08-10T07:43:31.288Z,1013.21
2017-08-10T07:44:41.563Z,1013.22
2017-08-10T07:45:52.086Z,1013.22
2017-08-10T07:47:02.369Z,1013.19
2017-08-10T07:48:12.336Z,1013.16
2017-08-10T07:49:22.618Z,1013.21
2017-08-10T07:50:32.892Z,1013.25
2017-08-10T07:51:43.124Z,1013.23
2017-08-10T07:52:53.105Z,1013.27
2017-08-10T07:54:03.404Z,1013.31
2017-08-10T07:55:13.677Z,1013.36
2017-08-10T07:56:23.955Z,1013.4
2017-08-10T07:57:34.482Z,1013.41
2017-08-10T07:58:44.769Z,1013.46
2017-08-10T07:59:54.747Z,1013.51
2017-08-10T08:01:05.033Z,1013.53
2017-08-10T08:02:15.341Z,1013.59
2017-08-10T08:03:25.872Z,1013.66
2017-08-10T08:04:35.856Z,1013.68
2017-08-10T08:05:45.838Z,1013.66
2017-08-10T08:06:56.117Z,1013.66
2017-08-10T08:08:06.405Z,1013.63
2017-08-10T08:09:16.994Z,1013.63
2017-08-10T08:10:26.677Z,1013.64
2017-08-10T08:11:36.981Z,1013.63
2017-08-10T08:12:46.950Z,1013.64
2017-08-10T08:13:57.242Z,1013.69
2017-08-10T08:15:07.846Z,1013.68
2017-08-10T08:16:17.817Z,1013.69
2017-08-10T08:17:28.106Z,1013.67
2017-08-10T08:18:38.099Z,1013.66
2017-08-10T08:19:48.108Z,1013.66
2017-08-10T08:20:58.634Z,1013.64
2017-08-10T08:22:08.922Z,1013.65
2017-08-10T08:23:19.217Z,1013.64
2017-08-10T08:24:29.208Z,1013.59
2017-08-10T08:25:39.489Z,1013.61
2017-08-10T08:26:49.728Z,1013.6
2017-08-10T08:28:00.006Z,1013.6
2017-08-10T08:29:10.294Z,1013.59
2017-08-10T08:30:20.277Z,1013.61
2017-08-10T08:31:30.557Z,1013.61
2017-08-10T08:32:41.126Z,1013.63
2017-08-10T08:33:51.400Z,1013.66
2017-08-10T08:35:01.707Z,1013.62
2017-08-10T08:36:12.009Z,1013.65
2017-08-10T08:37:22.310Z,1013.69
2017-08-10T08:38:32.889Z,1013.73
2017-08-10T08:39:43.183Z,1013.73
2017-08-10T08:40:53.155Z,1013.71
2017-08-10T08:42:03.454Z,1013.72
2017-08-10T08:43:13.431Z,1013.76
2017-08-10T08:44:23.971Z,1013.76
2017-08-10T08:45:33.665Z,1013.74
2017-08-10T08:46:43.637Z,1013.74
2017-08-10T08:47:53.911Z,1013.75
2017-08-10T08:49:03.586Z,1013.78
2017-08-10T08:50:13.807Z,1013.77
2017-08-10T08:51:24.101Z,1013.77
2017-08-10T08:52:33.773Z,1013.78
2017-08-10T08:53:44.069Z,1013.79
2017-08-10T08:54:54.042Z,1013.8
2017-08-10T08:56:04.572Z,1013.85
2017-08-10T08:57:14.546Z,1013.86
2017-08-10T08:58:25.512Z,1013.85
2017-08-10T08:59:35.791Z,1013.86
2017-08-10T09:00:46.086Z,1013.9
2017-08-10T09:01:56.655Z,1013.91
2017-08-10T09:03:06.946Z,1013.94
2017-08-10T09:04:17.238Z,1013.95
2017-08-10T09:05:27.529Z,1013.92
2017-08-10T09:06:37.817Z,1013.94
2017-08-10T09:07:48.369Z,1013.93
2017-08-10T09:08:58.660Z,1013.96
2017-08-10T09:10:08.969Z,1013.89
2017-08-10T09:11:19.275Z,1013.92
2017-08-10T09:12:29.582Z,1013.9
2017-08-10T09:13:40.186Z,1013.91
2017-08-10T09:14:50.480Z,1013.88
2017-08-10T09:16:00.774Z,1013.89
2017-08-10T09:17:11.073Z,1013.88
2017-08-10T09:18:21.056Z,1013.88
2017-08-10T09:19:31.618Z,1013.89
2017-08-10T09:20:41.598Z,1013.88
2017-08-10T09:21:51.899Z,1013.86
2017-08-10T09:23:01.572Z,1013.84
2017-08-10T09:24:11.543Z,1013.85
2017-08-10T09:25:22.092Z,1013.84
2017-08-10T09:26:32.382Z,1013.79
2017-08-10T09:27:42.690Z,1013.83
2017-08-10T09:28:52.670Z,1013.74
2017-08-10T09:30:02.974Z,1013.71
2017-08-10T09:31:13.535Z,1013.69
2017-08-10T09:32:23.519Z,1013.7
2017-08-10T09:33:33.823Z,1013.68
2017-08-10T09:34:44.121Z,1013.71
2017-08-10T09:35:54.102Z,1013.72
2017-08-10T09:37:04.657Z,1013.66
2017-08-10T09:38:14.943Z,1013.64
2017-08-10T09:39:25.254Z,1013.62
2017-08-10T09:40:35.540Z,1013.66
2017-08-10T09:41:45.843Z,1013.68
2017-08-10T09:42:56.064Z,1013.64
2017-08-10T09:44:06.377Z,1013.6
2017-08-10T09:45:16.682Z,1013.59
2017-08-10T09:46:26.979Z,1013.56
2017-08-10T09:47:37.284Z,1013.61
2017-08-10T09:48:47.889Z,1013.6
2017-08-10T09:49:57.580Z,1013.59
2017-08-10T09:51:07.565Z,1013.62
2017-08-10T09:52:17.909Z,1013.63
2017-08-10T09:53:27.885Z,1013.6
2017-08-10T09:54:37.825Z,1013.65
2017-08-10T09:55:48.122Z,1013.66
2017-08-10T09:56:57.798Z,1013.7
2017-08-10T09:58:07.785Z,1013.6
2017-08-10T09:59:18.078Z,1013.54
2017-08-10T10:00:28.637Z,1013.62
2017-08-10T10:01:38.971Z,1013.59
2017-08-10T10:02:49.304Z,1013.6
2017-08-10T10:03:59.609Z,1013.55
2017-08-10T10:05:09.616Z,1013.65
2017-08-10T10:06:19.533Z,1013.65
2017-08-10T10:07:29.833Z,1013.61
2017-08-10T10:08:39.518Z,1013.63
2017-08-10T10:09:49.814Z,1013.58
2017-08-10T10:10:59.799Z,1013.66
2017-08-10T10:12:10.390Z,1013.61
2017-08-10T10:13:20.693Z,1013.6
2017-08-10T10:14:30.988Z,1013.53
2017-08-10T10:15:41.287Z,1013.55
2017-08-10T10:16:51.579Z,1013.53
2017-08-10T10:18:02.130Z,1013.5
2017-08-10T10:19:12.122Z,1013.56
2017-08-10T10:20:21.789Z,1013.57
2017-08-10T10:21:31.792Z,1013.57
2017-08-10T10:22:42.109Z,1013.6
2017-08-10T10:23:52.339Z,1013.61
2017-08-10T10:25:02.326Z,1013.57
2017-08-10T10:26:12.318Z,1013.54
2017-08-10T10:27:22.314Z,1013.53
2017-08-10T10:28:32.305Z,1013.55
2017-08-10T10:29:42.912Z,1013.58
2017-08-10T10:30:53.223Z,1013.53
2017-08-10T10:32:02.893Z,1013.55
2017-08-10T10:33:13.216Z,1013.54
2017-08-10T10:34:23.511Z,1013.52
2017-08-10T10:35:34.073Z,1013.51
2017-08-10T10:36:44.368Z,1013.49
2017-08-10T10:37:54.667Z,1013.47
2017-08-10T10:39:04.658Z,1013.51
2017-08-10T10:40:14.956Z,1013.49
2017-08-10T10:41:25.504Z,1013.46
2017-08-10T10:42:35.809Z,1013.44
2017-08-10T10:43:45.483Z,1013.44
2017-08-10T10:44:55.782Z,1013.42
2017-08-10T10:46:06.084Z,1013.48
2017-08-10T10:47:16.343Z,1013.47
2017-08-10T10:48:26.340Z,1013.46
2017-08-10T10:49:36.636Z,1013.45
2017-08-10T10:50:46.927Z,1013.44
2017-08-10T10:51:57.222Z,1013.37
2017-08-10T10:53:07.453Z,1013.34
2017-08-10T10:54:17.762Z,1013.27
2017-08-10T10:55:28.046Z,1013.31
2017-08-10T10:56:38.338Z,1013.27
2017-08-10T10:57:48.640Z,1013.27
2017-08-10T10:58:58.570Z,1013.25
2017-08-10T11:00:08.861Z,1013.26
2017-08-10T11:01:18.845Z,1013.25
2017-08-10T11:02:28.832Z,1013.27
2017-08-10T11:03:38.499Z,1013.19
2017-08-10T11:04:48.798Z,1013.24
2017-08-10T11:05:59.315Z,1013.21
2017-08-10T11:07:08.987Z,1013.24
2017-08-10T11:08:18.955Z,1013.26
2017-08-10T11:09:28.635Z,1013.21
2017-08-10T11:10:39.227Z,1013.2
2017-08-10T11:11:49.559Z,1013.23
2017-08-10T11:12:59.869Z,1013.21
2017-08-10T11:14:09.895Z,1013.14
2017-08-10T11:15:20.182Z,1013.21
2017-08-10T11:16:30.414Z,1013.18
2017-08-10T11:17:40.429Z,1013.15
2017-08-10T11:18:50.423Z,1013.15
2017-08-10T11:20:00.717Z,1013.08
2017-08-10T11:21:11.076Z,1013.04
2017-08-10T11:22:21.064Z,1013
2017-08-10T11:23:31.059Z,1013.02
2017-08-10T11:24:41.063Z,1013.02
2017-08-10T11:25:51.375Z,1013.02
2017-08-10T11:27:01.681Z,1013.05
2017-08-10T11:28:11.910Z,1013.1
2017-08-10T11:29:22.219Z,1013.04
2017-08-10T11:30:32.214Z,1013.14
2017-08-10T11:31:42.520Z,1013.12
2017-08-10T11:32:52.506Z,1013.13
2017-08-10T11:34:03.063Z,1013.17
2017-08-10T11:35:13.367Z,1013.17
2017-08-10T11:36:23.680Z,1013.17
2017-08-10T11:37:33.990Z,1013.11
2017-08-10T11:38:44.298Z,1013.13
2017-08-10T11:39:54.533Z,1013.1
2017-08-10T11:41:04.846Z,1013.09
2017-08-10T11:42:14.534Z,1013.14
2017-08-10T11:43:24.858Z,1013.1
2017-08-10T11:44:34.852Z,1013.06
2017-08-10T11:45:45.652Z,1013.15
2017-08-10T11:46:55.948Z,1013.1
2017-08-10T11:48:06.273Z,1013.15
2017-08-10T11:49:16.597Z,1013.17
2017-08-10T11:50:26.272Z,1013.18
2017-08-10T11:51:36.833Z,1013.11
2017-08-10T11:52:46.819Z,1013.1
2017-08-10T11:53:57.132Z,1012.97
2017-08-10T11:55:07.435Z,1013.05
2017-08-10T11:56:17.737Z,1013.08
2017-08-10T11:57:28.016Z,1013.04
2017-08-10T11:58:38.016Z,1013.06
2017-08-10T11:59:47.983Z,1013.13
2017-08-10T12:00:57.957Z,1013.17
2017-08-10T12:02:08.250Z,1013.14
2017-08-10T12:03:18.821Z,1013.19
2017-08-10T12:04:29.139Z,1013.16
2017-08-10T12:05:38.809Z,1013.15
2017-08-10T12:06:49.122Z,1013.08
2017-08-10T12:07:59.098Z,1013.04
2017-08-10T12:09:09.349Z,1013.04
2017-08-10T12:10:19.339Z,1013.06
2017-08-10T12:11:29.628Z,1013.09
2017-08-10T12:12:39.633Z,1013.06
2017-08-10T12:13:49.932Z,1013.02
2017-08-10T12:15:00.475Z,1012.99
2017-08-10T12:16:09.842Z,1013.01
2017-08-10T12:17:20.116Z,1013
2017-08-10T12:18:30.422Z,1012.99
2017-08-10T12:19:40.409Z,1013.04
2017-08-10T12:20:50.396Z,1013
2017-08-10T12:22:00.698Z,1013.06
2017-08-10T12:23:10.999Z,1013.09
2017-08-10T12:24:21.302Z,1013.1
2017-08-10T12:25:31.306Z,1013.11
2017-08-10T12:26:41.857Z,1013.09
2017-08-10T12:27:51.852Z,1013.08
2017-08-10T12:29:01.844Z,1013.08
2017-08-10T12:30:11.514Z,1013.06
2017-08-10T12:31:21.205Z,1013.05
2017-08-10T12:32:31.777Z,1013.04
2017-08-10T12:33:42.100Z,1012.99
2017-08-10T12:34:52.408Z,1013
2017-08-10T12:36:02.719Z,1012.99
2017-08-10T12:37:13.032Z,1013
2017-08-10T12:38:23.596Z,1013.06
2017-08-10T12:39:32.960Z,1013.05
2017-08-10T12:40:43.273Z,1013.04
2017-08-10T12:41:53.561Z,1013.02
2017-08-10T12:43:03.869Z,1013.01
2017-08-10T12:44:14.423Z,1012.99
2017-08-10T12:45:24.420Z,1012.94
2017-08-10T12:46:34.721Z,1012.9
2017-08-10T12:47:45.011Z,1012.84
2017-08-10T12:48:55.314Z,1012.85
2017-08-10T12:50:05.558Z,1012.82
2017-08-10T12:51:15.858Z,1012.79
2017-08-10T12:52:26.166Z,1012.86
2017-08-10T12:53:36.169Z,1012.86
2017-08-10T12:54:46.461Z,1012.82
2017-08-10T12:55:56.731Z,1012.92
2017-08-10T12:57:07.074Z,1012.88
2017-08-10T12:58:17.406Z,1012.87
2017-08-10T12:59:27.066Z,1012.98
2017-08-10T13:00:37.058Z,1012.97
2017-08-10T13:01:46.984Z,1012.94
2017-08-10T13:02:57.283Z,1012.94
2017-08-10T13:04:07.301Z,1012.89
2017-08-10T13:05:17.285Z,1012.86
2017-08-10T13:06:27.579Z,1012.84
2017-08-10T13:07:37.504Z,1012.83
2017-08-10T13:08:47.506Z,1012.8
2017-08-10T13:09:57.806Z,1012.8
2017-08-10T13:11:08.108Z,1012.8
2017-08-10T13:12:18.119Z,1012.82
2017-08-10T13:13:28.037Z,1012.85
2017-08-10T13:14:38.335Z,1012.83
2017-08-10T13:15:48.643Z,1012.78
2017-08-10T13:16:58.647Z,1012.78
2017-08-10T13:18:08.943Z,1012.77
2017-08-10T13:19:19.549Z,1012.74
2017-08-10T13:20:29.547Z,1012.75
2017-08-10T13:21:39.859Z,1012.76
2017-08-10T13:22:50.151Z,1012.74
2017-08-10T13:24:00.135Z,1012.73
2017-08-10T13:25:10.368Z,1012.73
2017-08-10T13:26:20.341Z,1012.74
2017-08-10T13:27:30.627Z,1012.64
2017-08-10T13:28:40.925Z,1012.63
2017-08-10T13:29:51.231Z,1012.62
2017-08-10T13:31:01.483Z,1012.62
2017-08-10T13:32:11.793Z,1012.64
2017-08-10T13:33:21.786Z,1012.6
2017-08-10T13:34:31.785Z,1012.64
2017-08-10T13:35:41.773Z,1012.6
2017-08-10T13:36:52.368Z,1012.61
2017-08-10T13:38:02.669Z,1012.61
2017-08-10T13:39:12.666Z,1012.63
2017-08-10T13:40:22.653Z,1012.65
2017-08-10T13:41:32.618Z,1012.64
2017-08-10T13:42:43.171Z,1012.53
2017-08-10T13:43:53.472Z,1012.51
2017-08-10T13:45:03.779Z,1012.52
2017-08-10T13:46:13.748Z,1012.51
2017-08-10T13:47:23.751Z,1012.54
2017-08-10T13:48:33.708Z,1012.51
2017-08-10T13:49:43.994Z,1012.48
2017-08-10T13:50:54.303Z,1012.49
2017-08-10T13:52:04.593Z,1012.55
2017-08-10T13:53:14.570Z,1012.57
2017-08-10T13:54:24.813Z,1012.54
2017-08-10T13:55:35.113Z,1012.62
2017-08-10T13:56:45.409Z,1012.65
2017-08-10T13:57:55.407Z,1012.57
2017-08-10T13:59:05.421Z,1012.64
2017-08-10T14:00:15.968Z,1012.62
2017-08-10T14:01:25.632Z,1012.66
2017-08-10T14:02:35.610Z,1012.73
2017-08-10T14:03:45.907Z,1012.77
2017-08-10T14:04:56.198Z,1012.76
2017-08-10T14:06:06.764Z,1012.7
2017-08-10T14:07:16.430Z,1012.64
2017-08-10T14:08:26.728Z,1012.64
2017-08-10T14:09:37.032Z,1012.63
2017-08-10T14:10:47.345Z,1012.58
2017-08-10T14:11:57.591Z,1012.54
2017-08-10T14:13:07.889Z,1012.54